createdAt,value
2023-02-19T00:00:01.291Z,62.90
2023-02-19T00:02:30.698Z,63.00
2023-02-19T00:04:59.803Z,63.30
2023-02-19T00:07:27.712Z,63.20
2023-02-19T00:09:56.007Z,63.60
2023-02-19T00:12:23.884Z,63.40
2023-02-19T00:14:51.830Z,63.20
2023-02-19T00:17:20.321Z,63.50
2023-02-19T00:19:49.529Z,63.40
2023-02-19T00:22:17.576Z,63.40
2023-02-19T00:24:47.331Z,63.20
2023-02-19T00:27:16.419Z,63.10
2023-02-19T00:29:44.240Z,63.10
2023-02-19T00:32:12.657Z,63.10
2023-02-19T00:34:40.878Z,63.10
2023-02-19T00:37:10.294Z,63.10
2023-02-19T00:39:38.150Z,63.30
2023-02-19T00:42:06.527Z,63.10
2023-02-19T00:44:34.596Z,63.20
2023-02-19T00:47:02.899Z,63.20
2023-02-19T00:49:32.133Z,63.20
2023-02-19T00:52:00.839Z,63.10
2023-02-19T00:54:31.360Z,63.20
2023-02-19T00:57:00.016Z,63.10
2023-02-19T00:59:28.256Z,63.10
2023-02-19T01:01:56.876Z,63.10
2023-02-19T01:04:25.125Z,63.20
2023-02-19T01:06:53.124Z,63.10
2023-02-19T01:09:21.380Z,63.00
2023-02-19T01:11:50.700Z,63.00
2023-02-19T01:14:18.733Z,63.20
2023-02-19T01:16:47.053Z,63.60
2023-02-19T01:19:15.031Z,63.10
2023-02-19T01:21:43.248Z,63.10
2023-02-19T01:24:11.909Z,63.50
2023-02-19T01:26:40.477Z,63.20
2023-02-19T01:29:10.179Z,63.10
2023-02-19T01:31:41.001Z,63.10
2023-02-19T01:34:11.659Z,63.00
2023-02-19T01:36:40.121Z,63.00
2023-02-19T01:39:09.166Z,63.00
2023-02-19T01:41:40.115Z,63.00
2023-02-19T01:44:48.265Z,63.10
2023-02-19T01:47:19.374Z,63.30
2023-02-19T01:49:50.866Z,62.90
2023-02-19T01:52:23.414Z,63.00
2023-02-19T01:54:52.510Z,62.80
2023-02-19T01:57:23.567Z,62.80
2023-02-19T01:59:58.060Z,62.90
2023-02-19T02:02:28.358Z,62.80
2023-02-19T02:04:57.567Z,62.70
2023-02-19T02:07:39.757Z,62.70
2023-02-19T02:10:23.854Z,62.60
2023-02-19T02:12:54.084Z,62.70
2023-02-19T02:15:26.993Z,62.60
2023-02-19T02:18:00.722Z,62.50
2023-02-19T02:20:38.399Z,62.40
2023-02-19T02:23:16.818Z,62.50
2023-02-19T02:26:09.697Z,62.40
2023-02-19T02:29:08.614Z,62.40
2023-02-19T02:31:43.378Z,62.30
2023-02-19T02:34:18.865Z,62.30
2023-02-19T02:36:50.893Z,62.20
2023-02-19T02:39:21.722Z,62.20
2023-02-19T02:42:12.818Z,62.20
2023-02-19T02:45:03.381Z,62.30
2023-02-19T02:47:44.834Z,62.20
2023-02-19T02:50:18.596Z,62.20
2023-02-19T02:53:07.686Z,62.20
2023-02-19T02:55:41.756Z,62.20
2023-02-19T02:58:11.879Z,62.20
2023-02-19T03:01:01.809Z,62.10
2023-02-19T03:03:33.510Z,62.10
2023-02-19T03:06:07.710Z,62.10
2023-02-19T03:08:41.112Z,62.20
2023-02-19T03:11:30.488Z,62.10
2023-02-19T03:14:20.361Z,62.10
2023-02-19T03:17:07.658Z,62.30
2023-02-19T03:19:43.726Z,62.00
2023-02-19T03:22:16.495Z,62.00
2023-02-19T03:25:06.745Z,62.00
2023-02-19T03:27:37.281Z,62.00
2023-02-19T03:30:11.660Z,62.10
2023-02-19T03:32:43.564Z,62.20
2023-02-19T03:35:18.011Z,62.10
2023-02-19T03:37:51.584Z,62.20
2023-02-19T03:40:19.959Z,62.20
2023-02-19T03:42:59.926Z,62.20
2023-02-19T03:45:37.308Z,62.40
2023-02-19T03:48:35.224Z,62.40
2023-02-19T03:51:21.640Z,62.40
2023-02-19T03:53:56.706Z,62.20
2023-02-19T03:56:29.998Z,62.30
2023-02-19T03:59:03.297Z,62.30
2023-02-19T04:01:39.145Z,62.50
2023-02-19T04:04:13.703Z,62.40
2023-02-19T04:06:45.448Z,62.50
2023-02-19T04:09:16.102Z,62.40
2023-02-19T04:11:50.050Z,62.30
2023-02-19T04:14:22.066Z,62.40
2023-02-19T04:16:56.079Z,62.40
2023-02-19T04:19:27.288Z,62.40
2023-02-19T04:21:59.717Z,62.30
2023-02-19T04:24:32.079Z,62.30
2023-02-19T04:27:00.629Z,62.30
2023-02-19T04:29:28.651Z,62.30
2023-02-19T04:31:57.516Z,62.20
2023-02-19T04:34:25.996Z,62.40
2023-02-19T04:36:54.066Z,62.30
2023-02-19T04:39:23.535Z,62.40
2023-02-19T04:41:51.799Z,62.40
2023-02-19T04:44:19.859Z,62.40
2023-02-19T04:46:48.008Z,62.30
2023-02-19T04:49:16.097Z,62.20
2023-02-19T04:51:44.700Z,62.10
2023-02-19T04:54:12.633Z,62.10
2023-02-19T04:56:42.441Z,62.00
2023-02-19T04:59:10.847Z,62.00
2023-02-19T05:01:39.000Z,62.00
2023-02-19T05:04:07.110Z,61.90
2023-02-19T05:06:35.522Z,61.90
2023-02-19T05:09:03.516Z,62.50
2023-02-19T05:11:31.749Z,61.80
2023-02-19T05:14:01.667Z,61.80
2023-02-19T05:16:29.668Z,61.90
2023-02-19T05:18:57.885Z,61.80
2023-02-19T05:21:26.063Z,61.70
2023-02-19T05:23:54.198Z,61.80
2023-02-19T05:26:23.886Z,61.70
2023-02-19T05:28:53.670Z,61.70
2023-02-19T05:31:23.478Z,61.70
2023-02-19T05:33:52.972Z,61.80
2023-02-19T05:36:23.106Z,61.70
2023-02-19T05:38:54.731Z,61.50
2023-02-19T05:41:25.127Z,61.50
2023-02-19T05:43:53.556Z,61.50
2023-02-19T05:46:25.893Z,61.50
2023-02-19T05:48:54.701Z,61.40
2023-02-19T05:51:24.241Z,61.40
2023-02-19T05:53:53.078Z,61.30
2023-02-19T05:56:32.695Z,61.30
2023-02-19T05:59:03.803Z,61.10
2023-02-19T06:01:33.423Z,61.10
2023-02-19T06:04:01.760Z,60.90
2023-02-19T06:06:30.114Z,61.00
2023-02-19T06:08:58.449Z,61.00
2023-02-19T06:11:26.851Z,61.00
2023-02-19T06:13:55.157Z,60.90
2023-02-19T06:16:24.588Z,60.90
2023-02-19T06:18:54.291Z,61.00
2023-02-19T06:21:22.634Z,60.90
2023-02-19T06:23:50.858Z,60.90
2023-02-19T06:26:20.680Z,60.80
2023-02-19T06:28:50.844Z,60.80
2023-02-19T06:31:20.215Z,60.80
2023-02-19T06:33:50.768Z,60.80
2023-02-19T06:36:22.156Z,60.90
2023-02-19T06:38:50.754Z,60.90
2023-02-19T06:41:19.441Z,60.80
2023-02-19T06:43:52.139Z,60.90
2023-02-19T06:46:20.503Z,60.90
2023-02-19T06:48:48.579Z,61.00
2023-02-19T06:51:19.614Z,60.90
2023-02-19T06:53:49.231Z,60.90
2023-02-19T06:56:26.479Z,61.00
2023-02-19T06:58:55.755Z,61.00
2023-02-19T07:01:24.743Z,60.90
2023-02-19T07:03:53.581Z,61.00
2023-02-19T07:06:22.320Z,61.80
2023-02-19T07:08:52.611Z,61.10
2023-02-19T07:11:20.613Z,61.20
2023-02-19T07:13:48.892Z,61.30
2023-02-19T07:16:18.139Z,61.30
2023-02-19T07:18:46.851Z,61.30
2023-02-19T07:21:17.196Z,61.10
2023-02-19T07:23:47.974Z,61.10
2023-02-19T07:26:19.948Z,61.10
2023-02-19T07:28:50.822Z,61.10
2023-02-19T07:31:21.522Z,61.20
2023-02-19T07:33:50.329Z,61.20
2023-02-19T07:36:20.052Z,61.10
2023-02-19T07:38:48.782Z,61.10
2023-02-19T07:41:18.164Z,61.10
2023-02-19T07:43:47.093Z,61.10
2023-02-19T07:46:15.745Z,61.10
2023-02-19T07:48:47.020Z,61.00
2023-02-19T07:51:18.888Z,61.00
2023-02-19T07:53:47.789Z,60.90
2023-02-19T07:56:15.917Z,60.90
2023-02-19T07:58:46.335Z,60.80
2023-02-19T08:01:17.460Z,60.70
2023-02-19T08:03:45.668Z,60.80
2023-02-19T08:06:14.102Z,60.80
2023-02-19T08:08:42.097Z,60.80
2023-02-19T08:11:28.951Z,60.80
2023-02-19T08:13:58.333Z,60.80
2023-02-19T08:16:42.217Z,60.90
2023-02-19T08:19:11.225Z,60.80
2023-02-19T08:21:39.257Z,60.70
2023-02-19T08:24:07.870Z,60.80
2023-02-19T08:26:36.428Z,60.90
2023-02-19T08:29:06.832Z,61.00
2023-02-19T08:31:36.100Z,61.00
2023-02-19T08:34:04.385Z,61.00
2023-02-19T08:36:32.546Z,61.00
2023-02-19T08:39:00.733Z,60.90
2023-02-19T08:41:28.987Z,60.70
2023-02-19T08:43:57.278Z,60.80
2023-02-19T08:46:26.703Z,60.60
2023-02-19T08:48:54.991Z,60.70
2023-02-19T08:51:23.045Z,60.40
2023-02-19T08:53:51.420Z,60.50
2023-02-19T08:56:21.724Z,60.60
2023-02-19T08:58:49.723Z,60.60
2023-02-19T09:01:19.252Z,60.60
2023-02-19T09:03:49.115Z,60.50
2023-02-19T09:06:18.949Z,60.50
2023-02-19T09:08:47.437Z,60.50
2023-02-19T09:11:16.171Z,60.40
2023-02-19T09:13:45.168Z,60.30
2023-02-19T09:16:13.525Z,60.40
2023-02-19T09:18:41.490Z,60.40
2023-02-19T09:21:11.442Z,60.40
2023-02-19T09:23:40.000Z,60.50
2023-02-19T09:26:10.249Z,60.90
2023-02-19T09:28:41.555Z,61.20
2023-02-19T09:31:12.928Z,61.10
2023-02-19T09:33:45.195Z,61.10
2023-02-19T09:36:16.268Z,61.20
2023-02-19T09:38:44.429Z,61.10
2023-02-19T09:41:18.887Z,61.10
2023-02-19T09:43:47.437Z,60.70
2023-02-19T09:46:25.859Z,60.60
2023-02-19T09:48:56.312Z,60.30
2023-02-19T09:51:28.530Z,60.10
2023-02-19T09:53:58.682Z,60.10
2023-02-19T09:56:28.687Z,59.90
2023-02-19T09:58:59.735Z,59.80
2023-02-19T10:01:32.304Z,59.90
2023-02-19T10:04:00.825Z,59.80
2023-02-19T10:06:30.670Z,59.90
2023-02-19T10:09:15.596Z,59.80
2023-02-19T10:11:43.896Z,59.90
2023-02-19T10:14:18.290Z,59.90
2023-02-19T10:16:49.402Z,59.80
2023-02-19T10:19:18.216Z,59.80
2023-02-19T10:21:48.280Z,59.80
2023-02-19T10:24:22.573Z,59.70
2023-02-19T10:26:51.500Z,59.70
2023-02-19T10:29:21.614Z,59.70
2023-02-19T10:31:50.346Z,59.70
2023-02-19T10:34:22.737Z,59.70
2023-02-19T10:36:53.468Z,59.70
2023-02-19T10:39:42.304Z,59.50
2023-02-19T10:42:19.469Z,59.50
2023-02-19T10:44:50.938Z,59.70
2023-02-19T10:47:22.619Z,59.70
2023-02-19T10:49:52.343Z,59.60
2023-02-19T10:52:26.678Z,59.20
2023-02-19T10:57:50.596Z,59.10
2023-02-19T11:00:26.906Z,59.20
2023-02-19T11:03:15.348Z,59.10
2023-02-19T11:05:56.092Z,58.80
2023-02-19T11:08:26.107Z,58.90
2023-02-19T11:10:54.335Z,59.00
2023-02-19T11:13:30.480Z,59.30
2023-02-19T11:15:59.688Z,59.20
2023-02-19T11:18:30.152Z,59.40
2023-02-19T11:21:00.372Z,59.50
2023-02-19T11:23:32.105Z,59.70
2023-02-19T11:26:03.210Z,59.80
2023-02-19T11:28:37.095Z,60.10
2023-02-19T11:31:22.759Z,60.10
2023-02-19T11:33:56.963Z,59.90
2023-02-19T11:36:31.036Z,59.80
2023-02-19T11:39:04.070Z,59.60
2023-02-19T11:41:55.864Z,59.50
2023-02-19T11:44:36.473Z,59.40
2023-02-19T11:47:27.167Z,59.40
2023-02-19T11:50:04.168Z,59.30
2023-02-19T11:52:37.495Z,59.40
2023-02-19T11:55:16.067Z,59.50
2023-02-19T11:57:48.109Z,59.50
2023-02-19T12:00:27.775Z,59.40
2023-02-19T12:03:35.689Z,59.20
2023-02-19T12:06:23.984Z,59.20
2023-02-19T12:09:13.947Z,59.40
2023-02-19T12:12:07.532Z,59.40
2023-02-19T12:15:23.186Z,59.30
2023-02-19T12:18:19.201Z,59.30
2023-02-19T12:20:55.488Z,59.50
2023-02-19T12:23:51.134Z,59.50
2023-02-19T12:26:24.043Z,59.50
2023-02-19T12:29:27.489Z,59.70
2023-02-19T12:32:35.924Z,59.30
2023-02-19T12:35:24.608Z,59.40
2023-02-19T12:37:59.152Z,59.30
2023-02-19T12:40:39.659Z,59.30
2023-02-19T12:43:14.832Z,59.30
2023-02-19T12:45:50.606Z,59.30
2023-02-19T12:48:26.738Z,59.40
2023-02-19T12:50:58.791Z,59.40
2023-02-19T12:53:36.368Z,59.80
2023-02-19T12:56:12.460Z,60.10
2023-02-19T12:58:46.547Z,59.90
2023-02-19T13:01:22.293Z,59.60
2023-02-19T13:03:59.706Z,59.40
2023-02-19T13:06:37.576Z,59.20
2023-02-19T13:09:12.693Z,58.90
2023-02-19T13:11:45.360Z,58.60
2023-02-19T13:14:22.687Z,58.30
2023-02-19T13:16:56.970Z,58.20
2023-02-19T13:19:25.359Z,58.10
2023-02-19T13:22:18.158Z,58.20
2023-02-19T13:24:48.019Z,58.20
2023-02-19T13:27:37.532Z,58.30
2023-02-19T13:30:23.974Z,58.20
2023-02-19T13:33:04.476Z,58.40
2023-02-19T13:36:06.306Z,58.60
2023-02-19T13:38:38.500Z,58.60
2023-02-19T13:41:07.730Z,58.80
2023-02-19T13:43:38.913Z,58.70
2023-02-19T13:46:10.534Z,58.60
2023-02-19T13:48:42.250Z,58.50
2023-02-19T13:51:39.834Z,58.50
2023-02-19T13:54:21.023Z,58.50
2023-02-19T13:56:50.131Z,58.70
2023-02-19T13:59:36.918Z,58.70
2023-02-19T14:02:33.983Z,58.70
2023-02-19T14:05:07.492Z,58.80
2023-02-19T14:07:39.240Z,58.90
2023-02-19T14:10:13.664Z,58.90
2023-02-19T14:12:41.913Z,58.90
2023-02-19T14:15:43.917Z,59.00
2023-02-19T14:18:44.200Z,58.80
2023-02-19T14:21:26.028Z,58.50
2023-02-19T14:23:56.833Z,58.50
2023-02-19T14:26:26.692Z,58.70
2023-02-19T14:28:55.441Z,58.50
2023-02-19T14:31:30.316Z,58.40
2023-02-19T14:34:00.946Z,58.50
2023-02-19T14:36:53.820Z,58.40
2023-02-19T14:39:25.797Z,58.20
2023-02-19T14:41:57.470Z,58.30
2023-02-19T14:44:28.867Z,58.30
2023-02-19T14:47:00.672Z,58.50
2023-02-19T14:49:34.612Z,58.40
2023-02-19T14:52:07.505Z,58.40
2023-02-19T14:54:42.445Z,58.40
2023-02-19T14:57:17.002Z,58.50
2023-02-19T14:59:55.415Z,58.40
2023-02-19T15:02:25.919Z,58.50
2023-02-19T15:04:55.219Z,58.50
2023-02-19T15:07:29.175Z,58.80
2023-02-19T15:10:03.657Z,58.50
2023-02-19T15:12:36.193Z,58.50
2023-02-19T15:15:07.633Z,58.60
2023-02-19T15:17:39.702Z,58.60
2023-02-19T15:20:13.101Z,58.60
2023-02-19T15:22:43.097Z,58.50
2023-02-19T15:25:18.768Z,58.50
2023-02-19T15:27:46.991Z,58.60
2023-02-19T15:30:28.526Z,58.60
2023-02-19T15:32:58.147Z,58.40
2023-02-19T15:35:27.552Z,58.40
2023-02-19T15:37:57.758Z,58.40
2023-02-19T15:40:30.160Z,58.30
2023-02-19T15:42:59.578Z,58.30
2023-02-19T15:45:31.008Z,58.30
2023-02-19T15:48:03.885Z,58.30
2023-02-19T15:50:34.526Z,58.40
2023-02-19T15:53:09.286Z,58.30
2023-02-19T15:55:42.227Z,58.30
2023-02-19T15:58:17.468Z,58.30
2023-02-19T16:00:50.187Z,58.40
2023-02-19T16:03:20.855Z,58.30
2023-02-19T16:06:00.238Z,58.40
2023-02-19T16:08:33.026Z,58.40
2023-02-19T16:11:02.793Z,58.50
2023-02-19T16:13:32.950Z,58.50
2023-02-19T16:16:07.452Z,58.60
2023-02-19T16:18:36.082Z,58.60
2023-02-19T16:21:09.352Z,58.60
2023-02-19T16:23:47.638Z,58.70
2023-02-19T16:26:16.230Z,58.60
2023-02-19T16:28:47.204Z,58.70
2023-02-19T16:31:15.744Z,58.70
2023-02-19T16:33:46.517Z,58.70
2023-02-19T16:36:37.807Z,58.80
2023-02-19T16:39:18.073Z,58.80
2023-02-19T16:42:20.321Z,58.70
2023-02-19T16:44:49.375Z,58.80
2023-02-19T16:47:33.129Z,58.60
2023-02-19T16:50:08.336Z,58.70
2023-02-19T16:52:39.169Z,58.80
2023-02-19T16:55:14.802Z,58.80
2023-02-19T16:57:43.348Z,58.90
2023-02-19T17:00:18.454Z,58.80
2023-02-19T17:02:48.567Z,58.90
2023-02-19T17:05:17.366Z,58.90
2023-02-19T17:07:45.349Z,58.90
2023-02-19T17:10:18.308Z,58.90
2023-02-19T17:12:46.317Z,58.90
2023-02-19T17:15:14.450Z,58.90
2023-02-19T17:17:42.846Z,58.90
2023-02-19T17:20:22.790Z,58.90
2023-02-19T17:22:51.204Z,58.90
2023-02-19T17:25:21.330Z,58.90
2023-02-19T17:27:49.641Z,58.90
2023-02-19T17:30:23.386Z,58.90
2023-02-19T17:32:52.166Z,58.90
2023-02-19T17:35:20.261Z,59.00
2023-02-19T17:37:48.462Z,59.00
2023-02-19T17:40:32.171Z,59.00
2023-02-19T17:43:02.756Z,59.00
2023-02-19T17:45:30.844Z,59.00
2023-02-19T17:47:59.395Z,59.10
2023-02-19T17:50:29.568Z,59.10
2023-02-19T17:52:57.655Z,59.10
2023-02-19T17:55:27.995Z,59.00
2023-02-19T17:57:56.137Z,59.10
2023-02-19T18:00:26.101Z,59.10
2023-02-19T18:02:54.789Z,59.00
2023-02-19T18:05:22.980Z,59.00
2023-02-19T18:07:51.806Z,59.00
2023-02-19T18:10:21.704Z,59.50
2023-02-19T18:12:51.429Z,59.10
2023-02-19T18:15:22.352Z,59.10
2023-02-19T18:17:51.019Z,59.50
2023-02-19T18:20:22.726Z,59.00
2023-02-19T18:22:51.404Z,59.00
2023-02-19T18:25:20.518Z,59.00
2023-02-19T18:27:51.049Z,58.90
2023-02-19T18:30:21.137Z,59.00
2023-02-19T18:32:49.509Z,59.00
2023-02-19T18:35:19.086Z,59.00
2023-02-19T18:37:51.552Z,59.10
2023-02-19T18:40:21.159Z,59.10
2023-02-19T18:42:50.553Z,59.10
2023-02-19T18:45:19.217Z,59.10
2023-02-19T18:47:48.505Z,59.20
2023-02-19T18:50:17.874Z,59.10
2023-02-19T18:52:46.239Z,59.10
2023-02-19T18:55:14.555Z,59.10
2023-02-19T18:57:42.769Z,59.10
2023-02-19T19:00:18.244Z,59.10
2023-02-19T19:02:49.810Z,59.10
2023-02-19T19:05:23.311Z,58.90
2023-02-19T19:07:52.512Z,58.90
2023-02-19T19:10:21.264Z,58.80
2023-02-19T19:12:49.541Z,59.20
2023-02-19T19:15:19.855Z,58.70
2023-02-19T19:17:49.519Z,58.70
2023-02-19T19:20:19.537Z,58.60
2023-02-19T19:22:49.911Z,58.60
2023-02-19T19:25:18.342Z,58.40
2023-02-19T19:27:46.977Z,58.20
2023-02-19T19:30:16.037Z,58.40
2023-02-19T19:32:45.580Z,58.20
2023-02-19T19:35:13.874Z,58.20
2023-02-19T19:37:42.298Z,58.10
2023-02-19T19:40:12.302Z,58.10
2023-02-19T19:42:40.707Z,58.00
2023-02-19T19:45:11.846Z,58.10
2023-02-19T19:47:40.547Z,58.10
2023-02-19T19:50:12.111Z,58.10
2023-02-19T19:52:40.374Z,58.00
2023-02-19T19:55:08.884Z,58.00
2023-02-19T19:57:38.492Z,58.10
2023-02-19T20:00:09.016Z,57.90
2023-02-19T20:02:43.337Z,57.80
2023-02-19T20:05:13.362Z,57.80
2023-02-19T20:07:41.799Z,57.70
2023-02-19T20:10:11.615Z,57.70
2023-02-19T20:12:40.693Z,57.80
2023-02-19T20:15:10.229Z,57.70
2023-02-19T20:17:39.253Z,57.70
2023-02-19T20:20:09.085Z,57.70
2023-02-19T20:22:39.510Z,57.60
2023-02-19T20:25:08.169Z,57.50
2023-02-19T20:27:36.228Z,57.50
2023-02-19T20:30:05.035Z,57.50
2023-02-19T20:32:33.301Z,57.50
2023-02-19T20:35:01.984Z,57.50
2023-02-19T20:37:30.513Z,57.40
2023-02-19T20:40:00.009Z,57.30
2023-02-19T20:42:28.703Z,57.30
2023-02-19T20:44:57.383Z,57.30
2023-02-19T20:47:25.664Z,57.30
2023-02-19T20:49:53.699Z,57.20
2023-02-19T20:52:24.555Z,57.20
2023-02-19T20:54:55.473Z,57.20
2023-02-19T20:57:25.988Z,57.20
2023-02-19T20:59:54.135Z,57.20
2023-02-19T21:02:27.925Z,57.20
2023-02-19T21:04:57.413Z,57.20
2023-02-19T21:07:26.378Z,57.10
2023-02-19T21:09:54.810Z,57.10
2023-02-19T21:12:24.664Z,57.10
2023-02-19T21:14:53.047Z,57.10
2023-02-19T21:17:21.552Z,57.20
2023-02-19T21:19:50.357Z,57.20
2023-02-19T21:22:18.405Z,57.20
2023-02-19T21:24:49.706Z,57.20
2023-02-19T21:27:17.678Z,57.20
2023-02-19T21:29:47.644Z,57.10
2023-02-19T21:32:16.140Z,57.10
2023-02-19T21:34:44.388Z,57.10
2023-02-19T21:37:15.008Z,57.00
2023-02-19T21:39:43.456Z,57.00
2023-02-19T21:42:11.869Z,57.10
2023-02-19T21:44:41.665Z,57.00
2023-02-19T21:47:12.818Z,57.00
2023-02-19T21:49:41.889Z,57.00
2023-02-19T21:52:10.238Z,56.90
2023-02-19T21:54:38.270Z,57.00
2023-02-19T21:57:06.260Z,57.00
2023-02-19T21:59:34.475Z,56.90
2023-02-19T22:02:02.482Z,56.90
2023-02-19T22:04:31.828Z,56.80
2023-02-19T22:07:00.137Z,56.80
2023-02-19T22:09:28.178Z,56.60
2023-02-19T22:11:56.649Z,56.70
2023-02-19T22:14:24.662Z,56.70
2023-02-19T22:16:53.028Z,56.60
2023-02-19T22:19:21.217Z,56.70
2023-02-19T22:21:50.667Z,56.70
2023-02-19T22:24:21.517Z,56.70
2023-02-19T22:26:51.401Z,56.70
2023-02-19T22:29:19.755Z,56.70
2023-02-19T22:31:47.921Z,56.70
2023-02-19T22:34:16.884Z,56.60
2023-02-19T22:36:45.789Z,56.50
2023-02-19T22:39:22.704Z,56.50
2023-02-19T22:41:51.349Z,56.40
2023-02-19T22:44:20.055Z,56.50
2023-02-19T22:46:50.907Z,56.40
2023-02-19T22:49:20.075Z,56.40
2023-02-19T22:51:53.314Z,56.40
2023-02-19T22:54:26.845Z,56.40
2023-02-19T22:56:55.288Z,56.40
2023-02-19T22:59:23.927Z,56.50
2023-02-19T23:01:52.406Z,56.50
2023-02-19T23:04:21.734Z,56.50
2023-02-19T23:06:50.287Z,56.40
2023-02-19T23:09:23.675Z,56.30
2023-02-19T23:11:52.568Z,56.30
2023-02-19T23:14:22.089Z,56.20
2023-02-19T23:16:50.216Z,56.20
2023-02-19T23:19:18.545Z,56.20
2023-02-19T23:21:47.018Z,56.20
2023-02-19T23:24:16.427Z,56.20
2023-02-19T23:26:46.909Z,56.20
2023-02-19T23:29:17.739Z,56.20
2023-02-19T23:31:46.186Z,56.20
2023-02-19T23:34:15.424Z,56.20
2023-02-19T23:36:44.366Z,56.00
2023-02-19T23:39:14.506Z,56.00
2023-02-19T23:41:48.647Z,56.00
2023-02-19T23:44:17.110Z,56.00
2023-02-19T23:46:45.422Z,56.00
2023-02-19T23:49:14.281Z,55.90
2023-02-19T23:51:42.542Z,56.00
2023-02-19T23:54:11.147Z,56.00
2023-02-19T23:56:39.323Z,56.00
2023-02-19T23:59:08.858Z,56.00
